Time;durP1;ratioP1;P1;durP2;ratioP2;P2;SDS_P1;SDS_P2;PMS_P1;PMS_P2;Temp;Humidity;BMP_temperature;BMP_pressure;BME280_temperature;BME280_humidity;BME280_pressure;Samples;Min_cycle;Max_cycle;Signal;HPM_P1;HPM_P2
2023/09/06 00:01:05;;;;;;;7.18;5.00;;;23.10;99.90;;;;;;5160052;28;20050;-81
2023/09/06 00:03:37;;;;;;;10.27;4.65;;;23.10;99.90;;;;;;5180398;28;20030;-76
2023/09/06 00:06:09;;;;;;;8.75;4.78;;;23.10;99.90;;;;;;5149507;28;20031;-74
2023/09/06 00:08:39;;;;;;;10.18;4.68;;;23.10;99.90;;;;;;5163223;28;20478;-84
2023/09/06 00:11:10;;;;;;;7.25;4.63;;;23.00;99.90;;;;;;5150131;28;20035;-84
2023/09/06 00:13:41;;;;;;;11.13;4.25;;;23.10;99.90;;;;;;5145553;28;20576;-85
2023/09/06 00:16:12;;;;;;;8.05;5.03;;;23.10;99.90;;;;;;5145534;28;20391;-75
2023/09/06 00:18:43;;;;;;;9.52;5.20;;;23.00;99.90;;;;;;5157899;28;20046;-74
2023/09/06 00:21:14;;;;;;;5.00;4.35;;;23.00;99.90;;;;;;5162258;28;20031;-78
2023/09/06 00:23:45;;;;;;;9.57;4.95;;;23.00;99.90;;;;;;5163634;28;20336;-74
2023/09/06 00:26:16;;;;;;;8.48;4.82;;;23.00;99.90;;;;;;5165123;28;20062;-74
2023/09/06 00:28:46;;;;;;;7.40;4.43;;;22.90;99.90;;;;;;5164748;28;20034;-73
2023/09/06 00:31:17;;;;;;;8.35;4.53;;;23.00;99.90;;;;;;5163244;28;20486;-78
2023/09/06 00:33:48;;;;;;;7.18;4.70;;;23.00;99.90;;;;;;5165204;28;20022;-80
2023/09/06 00:36:19;;;;;;;9.10;5.05;;;23.00;99.90;;;;;;5164911;28;20026;-74
2023/09/06 00:38:50;;;;;;;6.10;4.63;;;23.00;99.90;;;;;;5159315;28;20077;-74
2023/09/06 00:41:21;;;;;;;8.00;5.15;;;23.00;99.90;;;;;;5155508;28;20093;-81
2023/09/06 00:43:52;;;;;;;12.93;5.78;;;23.00;99.90;;;;;;5155210;28;20089;-77
2023/09/06 00:46:23;;;;;;;7.65;5.03;;;23.00;99.90;;;;;;5152540;28;20031;-74
2023/09/06 00:48:55;;;;;;;7.53;5.03;;;23.00;99.90;;;;;;5157466;28;20022;-82
2023/09/06 00:51:26;;;;;;;7.68;4.63;;;23.00;99.90;;;;;;5172417;28;20066;-82
2023/09/06 00:54:00;;;;;;;6.28;5.03;;;22.90;99.90;;;;;;5156211;28;20547;-82
2023/09/06 00:56:31;;;;;;;9.60;5.28;;;23.00;99.90;;;;;;5163984;28;20442;-80
2023/09/06 00:59:02;;;;;;;7.22;4.90;;;23.00;99.90;;;;;;5160541;28;20078;-74
2023/09/06 01:01:34;;;;;;;10.60;5.22;;;23.10;99.90;;;;;;5157996;28;20353;-74
2023/09/06 01:04:04;;;;;;;12.80;5.55;;;23.00;99.90;;;;;;5145432;28;20026;-74
2023/09/06 01:06:39;;;;;;;11.50;5.88;;;23.00;99.90;;;;;;5158812;28;20014;-81
2023/09/06 01:09:11;;;;;;;7.65;5.22;;;23.00;99.90;;;;;;5149944;28;20027;-81
2023/09/06 01:11:41;;;;;;;8.75;5.40;;;23.00;99.90;;;;;;5162062;28;20030;-80
2023/09/06 01:14:12;;;;;;;10.02;6.05;;;23.00;99.90;;;;;;5162951;28;20105;-75
2023/09/06 01:16:49;;;;;;;7.10;6.32;;;23.00;99.90;;;;;;5148056;28;20039;-73
2023/09/06 01:19:24;;;;;;;8.88;6.35;;;23.00;99.90;;;;;;5157064;28;20032;-80
2023/09/06 01:22:12;;;;;;;8.93;5.75;;;23.00;99.90;;;;;;5164072;28;20073;-79
2023/09/06 01:24:43;;;;;;;9.27;5.25;;;23.00;99.90;;;;;;5164486;28;20030;-74
2023/09/06 01:27:14;;;;;;;11.48;5.72;;;23.10;99.90;;;;;;5162261;28;20034;-74
2023/09/06 01:29:45;;;;;;;10.13;6.72;;;23.00;99.90;;;;;;5163043;28;20023;-82
2023/09/06 01:32:16;;;;;;;10.02;7.20;;;22.90;99.90;;;;;;5179399;28;20034;-74
2023/09/06 01:34:47;;;;;;;7.38;6.60;;;23.00;99.90;;;;;;5164339;28;20023;-73
2023/09/06 01:37:17;;;;;;;8.68;6.07;;;23.00;99.90;;;;;;5150349;28;20034;-76
2023/09/06 01:39:48;;;;;;;6.93;6.22;;;22.90;99.90;;;;;;5151805;28;20113;-73
2023/09/06 01:42:22;;;;;;;7.13;6.50;;;23.00;99.90;;;;;;5163861;28;20041;-79
2023/09/06 01:44:53;;;;;;;11.18;7.55;;;23.00;99.90;;;;;;5166037;28;20035;-73
2023/09/06 01:47:25;;;;;;;11.10;7.25;;;23.00;99.90;;;;;;5165925;28;20053;-73
2023/09/06 01:49:57;;;;;;;7.03;6.35;;;22.90;99.90;;;;;;5166795;28;20406;-74
2023/09/06 01:52:28;;;;;;;10.38;6.05;;;23.00;99.90;;;;;;5182859;28;20038;-80
2023/09/06 01:54:58;;;;;;;8.23;5.47;;;22.90;99.90;;;;;;5148434;28;20463;-73
2023/09/06 01:57:29;;;;;;;7.43;5.07;;;23.00;99.90;;;;;;5162269;28;20133;-75
2023/09/06 02:00:00;;;;;;;11.15;6.53;;;23.00;99.90;;;;;;5163934;28;20410;-74
2023/09/06 02:02:31;;;;;;;11.48;5.90;;;23.10;99.90;;;;;;5167133;28;20441;-75
2023/09/06 02:05:02;;;;;;;8.10;4.85;;;23.10;99.90;;;;;;5168237;28;20073;-75
2023/09/06 02:07:32;;;;;;;6.28;5.43;;;23.00;99.90;;;;;;5182552;28;20040;-77
2023/09/06 02:10:04;;;;;;;6.90;5.70;;;22.90;99.90;;;;;;5167470;28;20026;-74
2023/09/06 02:12:35;;;;;;;11.57;6.03;;;23.00;99.90;;;;;;5167648;28;20046;-73
2023/09/06 02:15:13;;;;;;;10.80;6.82;;;23.10;99.90;;;;;;5166366;28;20410;-81
2023/09/06 02:17:44;;;;;;;7.13;6.30;;;23.10;99.90;;;;;;5165719;28;20018;-81
2023/09/06 02:20:21;;;;;;;12.57;6.95;;;23.10;99.90;;;;;;5167376;28;20033;-76
2023/09/06 02:22:57;;;;;;;7.38;6.22;;;23.10;99.90;;;;;;5163483;28;20546;-75
2023/09/06 02:25:31;;;;;;;8.50;6.65;;;23.20;99.90;;;;;;5157106;28;20035;-73
2023/09/06 02:30:56;;;;;;;11.15;6.85;;;23.00;99.90;;;;;;5117633;23;20413;-79
2023/09/06 02:33:28;;;;;;;11.38;6.72;;;23.00;99.90;;;;;;5076299;29;20036;-75
2023/09/06 02:35:58;;;;;;;7.82;6.32;;;23.00;99.90;;;;;;5071619;29;20024;-76
2023/09/06 02:38:29;;;;;;;8.10;6.45;;;23.00;99.90;;;;;;5086911;29;20500;-82
2023/09/06 02:41:00;;;;;;;7.93;6.20;;;23.10;99.90;;;;;;5069355;29;20104;-81
2023/09/06 02:43:31;;;;;;;11.85;7.30;;;23.20;99.90;;;;;;5061951;29;20085;-74
2023/09/06 02:46:07;;;;;;;9.07;6.75;;;23.00;99.90;;;;;;5058539;29;20040;-81
2023/09/06 02:48:46;;;;;;;8.85;6.40;;;23.10;99.90;;;;;;5067813;29;20068;-81
2023/09/06 02:51:21;;;;;;;9.85;6.53;;;23.10;99.90;;;;;;5066585;29;20132;-82
2023/09/06 02:53:57;;;;;;;12.68;6.45;;;23.10;99.90;;;;;;5068019;29;20036;-81
2023/09/06 02:56:29;;;;;;;7.68;6.80;;;23.20;99.90;;;;;;5054054;29;20028;-82
2023/09/06 02:58:59;;;;;;;9.45;5.43;;;23.10;99.90;;;;;;5067507;29;20072;-75
2023/09/06 03:01:30;;;;;;;9.68;5.68;;;23.20;99.90;;;;;;5067907;29;20067;-80
2023/09/06 03:04:06;;;;;;;8.13;6.35;;;23.20;99.90;;;;;;5067742;29;20028;-81
2023/09/06 03:06:37;;;;;;;9.13;6.45;;;23.20;99.90;;;;;;5066644;29;20032;-75
2023/09/06 03:09:11;;;;;;;8.13;5.60;;;23.10;99.90;;;;;;5067852;29;20451;-75
2023/09/06 03:11:42;;;;;;;16.48;6.15;;;23.20;99.90;;;;;;5067472;29;20100;-75
2023/09/06 03:14:13;;;;;;;10.57;6.30;;;23.20;99.90;;;;;;5067616;29;20501;-75
2023/09/06 03:16:44;;;;;;;9.25;6.43;;;23.20;99.90;;;;;;5067269;29;20493;-74
2023/09/06 03:19:15;;;;;;;12.48;6.50;;;23.10;99.90;;;;;;5065836;29;20024;-83
2023/09/06 03:21:47;;;;;;;10.15;6.68;;;23.20;99.90;;;;;;5064623;29;20024;-79
2023/09/06 03:24:19;;;;;;;10.20;6.75;;;23.30;99.90;;;;;;5066789;29;20025;-82
2023/09/06 03:26:49;;;;;;;10.75;6.95;;;23.20;99.90;;;;;;5067258;29;20025;-74
2023/09/06 03:29:22;;;;;;;8.07;6.50;;;23.30;99.90;;;;;;5065241;29;20045;-81
2023/09/06 03:31:53;;;;;;;10.45;7.05;;;23.20;99.90;;;;;;5065123;29;20068;-80
2023/09/06 03:34:24;;;;;;;9.80;6.75;;;23.30;99.90;;;;;;5065829;29;20025;-81
2023/09/06 03:36:55;;;;;;;10.75;7.55;;;23.30;99.90;;;;;;5061860;29;20546;-80
2023/09/06 03:39:29;;;;;;;8.05;7.30;;;23.30;99.90;;;;;;5049723;29;20033;-75
2023/09/06 03:42:00;;;;;;;8.75;6.55;;;23.40;99.90;;;;;;5067381;29;20037;-77
2023/09/06 03:44:31;;;;;;;9.02;6.40;;;23.30;99.90;;;;;;5050894;29;20017;-79
2023/09/06 03:47:13;;;;;;;12.30;7.47;;;23.30;99.90;;;;;;5080576;29;20055;-76
2023/09/06 03:49:45;;;;;;;7.95;7.05;;;23.40;99.90;;;;;;5065704;29;20016;-78
2023/09/06 03:52:16;;;;;;;8.88;7.13;;;23.40;99.90;;;;;;5066511;29;20477;-77
2023/09/06 03:54:50;;;;;;;8.30;7.45;;;23.40;99.90;;;;;;5065144;29;20075;-77
2023/09/06 03:57:22;;;;;;;11.65;7.30;;;23.40;99.90;;;;;;5066633;29;20069;-78
2023/09/06 03:59:52;;;;;;;11.57;6.78;;;23.40;99.90;;;;;;5065648;29;20029;-77
2023/09/06 04:02:27;;;;;;;10.82;7.85;;;23.40;99.90;;;;;;5062152;29;20344;-78
2023/09/06 04:04:57;;;;;;;11.45;7.07;;;23.40;99.90;;;;;;5051890;29;20049;-77
2023/09/06 04:07:30;;;;;;;9.55;6.78;;;23.40;99.90;;;;;;5066541;29;20421;-77
2023/09/06 04:10:02;;;;;;;11.88;7.40;;;23.50;99.90;;;;;;5064928;29;20051;-78
2023/09/06 04:12:35;;;;;;;11.07;7.05;;;23.50;99.90;;;;;;5063822;29;20048;-74
2023/09/06 04:15:07;;;;;;;11.52;7.82;;;23.40;99.90;;;;;;5065636;29;20031;-75
2023/09/06 04:17:40;;;;;;;8.25;7.43;;;23.40;99.90;;;;;;5064775;29;20032;-76
2023/09/06 04:20:20;;;;;;;8.75;6.80;;;23.50;99.90;;;;;;5065774;29;20375;-78
2023/09/06 04:22:51;;;;;;;7.63;6.93;;;23.50;99.90;;;;;;5053172;29;20032;-78
2023/09/06 04:25:22;;;;;;;8.82;8.02;;;23.50;99.90;;;;;;5063584;29;20029;-77
2023/09/06 04:27:54;;;;;;;10.68;8.00;;;23.50;99.90;;;;;;5064425;29;20469;-78
2023/09/06 04:30:30;;;;;;;12.20;7.10;;;23.60;99.90;;;;;;5063526;29;20096;-78
2023/09/06 04:33:03;;;;;;;10.15;7.32;;;23.60;99.90;;;;;;5061210;29;20049;-75
2023/09/06 04:35:37;;;;;;;10.05;7.00;;;23.60;99.90;;;;;;5058486;29;20033;-74
2023/09/06 04:38:09;;;;;;;15.70;6.40;;;23.60;99.90;;;;;;5051233;29;20029;-76
2023/09/06 04:40:44;;;;;;;13.52;7.68;;;23.60;99.90;;;;;;5054050;29;20025;-74
2023/09/06 04:43:17;;;;;;;9.65;8.10;;;23.70;99.90;;;;;;5054835;29;20036;-75
2023/09/06 04:45:49;;;;;;;9.60;8.15;;;23.60;99.90;;;;;;5048271;29;20033;-77
2023/09/06 04:48:23;;;;;;;12.02;7.63;;;23.70;99.90;;;;;;5053811;29;20044;-74
2023/09/06 04:50:56;;;;;;;9.75;8.35;;;23.70;99.90;;;;;;5059540;29;20029;-74
2023/09/06 04:53:27;;;;;;;17.10;7.97;;;23.80;99.90;;;;;;5055755;29;20127;-77
2023/09/06 04:56:02;;;;;;;13.07;7.90;;;23.70;99.90;;;;;;5057763;29;20174;-77
2023/09/06 04:58:33;;;;;;;10.40;8.00;;;23.80;99.90;;;;;;5059490;29;20896;-76
2023/09/06 05:01:06;;;;;;;11.88;8.15;;;23.70;99.90;;;;;;5055984;29;20052;-74
2023/09/06 05:03:38;;;;;;;8.70;7.40;;;23.70;99.90;;;;;;5054531;29;20434;-77
2023/09/06 05:06:08;;;;;;;12.65;7.68;;;23.80;99.90;;;;;;5053535;29;20173;-75
2023/09/06 05:08:39;;;;;;;9.30;7.65;;;23.90;99.90;;;;;;5060408;29;20540;-74
2023/09/06 05:11:14;;;;;;;9.18;7.35;;;23.80;99.90;;;;;;5056849;29;20456;-74
2023/09/06 05:13:45;;;;;;;9.65;7.50;;;23.80;99.90;;;;;;5059333;29;20490;-78
2023/09/06 05:16:16;;;;;;;9.63;8.38;;;23.90;99.90;;;;;;5055877;29;20036;-78
2023/09/06 05:18:47;;;;;;;8.10;6.93;;;24.00;99.90;;;;;;5057041;29;20441;-77
2023/09/06 05:21:18;;;;;;;11.18;7.65;;;23.90;99.90;;;;;;5074452;29;20502;-77
2023/09/06 05:23:48;;;;;;;12.27;6.88;;;24.00;99.90;;;;;;5083017;29;20457;-74
2023/09/06 05:26:20;;;;;;;8.73;6.55;;;24.10;99.90;;;;;;5060267;29;20029;-78
2023/09/06 05:28:51;;;;;;;13.90;7.15;;;24.20;99.90;;;;;;5068679;29;20031;-73
2023/09/06 05:31:22;;;;;;;10.85;6.22;;;24.20;99.90;;;;;;5068173;29;20052;-77
2023/09/06 05:33:53;;;;;;;9.02;7.00;;;24.30;99.90;;;;;;5068427;29;20037;-77
2023/09/06 05:36:24;;;;;;;8.23;6.97;;;24.30;99.90;;;;;;5069448;29;20039;-78
2023/09/06 05:38:54;;;;;;;9.23;7.43;;;24.40;99.90;;;;;;5067282;29;20032;-75
2023/09/06 05:41:25;;;;;;;11.10;6.72;;;24.40;99.90;;;;;;5050004;29;20029;-77
2023/09/06 05:43:56;;;;;;;7.78;5.78;;;24.50;99.90;;;;;;5064614;29;20028;-76
2023/09/06 05:46:27;;;;;;;8.02;6.63;;;24.50;99.90;;;;;;5067590;29;20035;-76
2023/09/06 05:48:57;;;;;;;11.13;6.43;;;24.60;99.90;;;;;;5067682;29;20394;-74
2023/09/06 05:51:28;;;;;;;10.60;6.30;;;24.60;99.90;;;;;;5067606;29;20041;-73
2023/09/06 05:54:00;;;;;;;8.15;5.97;;;24.50;99.90;;;;;;5069563;29;20060;-73
2023/09/06 05:56:31;;;;;;;14.60;6.18;;;24.60;99.90;;;;;;5066050;29;20036;-79
2023/09/06 05:59:02;;;;;;;7.85;5.75;;;24.70;99.90;;;;;;5069106;29;20036;-79
2023/09/06 06:01:32;;;;;;;9.70;6.20;;;24.70;99.90;;;;;;5067267;29;20040;-77
2023/09/06 06:04:03;;;;;;;10.50;5.88;;;24.70;99.90;;;;;;5063388;29;20037;-78
2023/09/06 06:06:35;;;;;;;9.75;6.05;;;24.80;99.90;;;;;;5065138;29;20036;-74
2023/09/06 06:09:05;;;;;;;7.53;6.32;;;25.00;99.90;;;;;;5063210;29;20053;-77
2023/09/06 06:11:37;;;;;;;10.00;5.90;;;25.10;99.90;;;;;;5066784;29;20521;-78
2023/09/06 06:14:08;;;;;;;7.25;5.18;;;25.10;99.90;;;;;;5068061;29;20032;-75
2023/09/06 06:16:39;;;;;;;11.43;5.15;;;25.20;99.90;;;;;;5065163;29;20482;-77
2023/09/06 06:19:09;;;;;;;11.63;6.18;;;25.30;99.90;;;;;;5067078;29;20052;-78
2023/09/06 06:21:40;;;;;;;12.60;6.15;;;25.20;99.90;;;;;;5066417;29;20130;-77
2023/09/06 06:24:12;;;;;;;8.23;6.00;;;25.10;99.90;;;;;;5066799;29;20067;-78
2023/09/06 06:26:43;;;;;;;9.65;5.22;;;25.10;99.90;;;;;;5066692;29;20025;-78
2023/09/06 06:29:14;;;;;;;9.23;5.45;;;25.00;99.90;;;;;;5066788;29;20052;-76
2023/09/06 06:31:45;;;;;;;12.98;6.50;;;25.10;99.90;;;;;;5067216;29;20119;-74
2023/09/06 06:34:18;;;;;;;11.77;6.05;;;25.00;99.90;;;;;;5067614;29;20092;-74
2023/09/06 06:36:49;;;;;;;11.13;6.28;;;25.10;99.90;;;;;;5067380;29;20144;-79
2023/09/06 06:39:20;;;;;;;9.30;5.88;;;25.00;99.90;;;;;;5067728;29;20120;-76
2023/09/06 06:41:50;;;;;;;9.07;5.63;;;25.00;99.90;;;;;;5066757;29;20033;-77
2023/09/06 06:44:21;;;;;;;11.48;5.38;;;24.80;99.90;;;;;;5058198;29;20041;-78
2023/09/06 06:46:52;;;;;;;14.20;5.07;;;24.80;99.90;;;;;;5063281;29;20013;-76
2023/09/06 06:49:23;;;;;;;11.27;5.03;;;24.90;99.90;;;;;;5068135;29;20033;-79
2023/09/06 06:51:53;;;;;;;7.43;5.20;;;24.90;99.90;;;;;;5066372;29;20128;-78
2023/09/06 06:54:25;;;;;;;12.40;5.95;;;24.90;99.90;;;;;;5052771;29;20117;-78
2023/09/06 06:56:56;;;;;;;11.82;5.38;;;24.80;99.90;;;;;;5065612;29;20104;-75
2023/09/06 06:59:27;;;;;;;11.32;6.03;;;25.00;99.90;;;;;;5082508;29;20032;-75
2023/09/06 07:01:58;;;;;;;9.45;5.55;;;24.90;99.90;;;;;;5080964;29;20119;-74
2023/09/06 07:04:29;;;;;;;11.50;6.18;;;24.90;99.90;;;;;;5062711;29;20025;-76
2023/09/06 07:07:00;;;;;;;7.97;5.82;;;24.90;99.90;;;;;;5058653;29;20044;-79
2023/09/06 07:09:31;;;;;;;10.38;6.05;;;24.90;99.90;;;;;;5067355;29;20021;-74
2023/09/06 07:12:02;;;;;;;9.15;5.80;;;25.00;99.90;;;;;;5067194;29;20048;-77
2023/09/06 07:14:33;;;;;;;9.95;5.25;;;24.90;99.90;;;;;;5065800;29;20092;-78
2023/09/06 07:17:04;;;;;;;10.70;6.70;;;25.00;99.90;;;;;;5066073;29;20046;-74
2023/09/06 07:19:35;;;;;;;8.05;5.30;;;24.90;99.90;;;;;;5080373;29;20503;-74
2023/09/06 07:22:06;;;;;;;8.68;6.25;;;24.90;99.90;;;;;;5066419;29;20107;-75
2023/09/06 07:24:36;;;;;;;14.90;6.28;;;25.00;99.90;;;;;;5066047;29;20056;-75
2023/09/06 07:27:07;;;;;;;9.43;5.93;;;25.00;99.90;;;;;;5066552;29;20080;-77
2023/09/06 07:29:39;;;;;;;10.90;5.82;;;24.90;99.90;;;;;;5066348;29;20047;-79
2023/09/06 07:32:10;;;;;;;11.23;6.07;;;24.90;99.90;;;;;;5064273;29;20426;-78
2023/09/06 07:34:40;;;;;;;12.35;6.45;;;24.90;99.90;;;;;;5067824;29;20048;-77
2023/09/06 07:37:11;;;;;;;8.90;5.82;;;24.90;99.90;;;;;;5067491;29;20138;-76
2023/09/06 07:39:42;;;;;;;9.77;5.85;;;24.90;99.90;;;;;;5081931;29;20048;-81
2023/09/06 07:42:13;;;;;;;11.27;7.03;;;24.80;99.90;;;;;;5066713;29;20080;-80
2023/09/06 07:44:43;;;;;;;9.55;5.45;;;24.90;99.90;;;;;;5061908;29;20033;-81
2023/09/06 07:47:14;;;;;;;9.82;6.82;;;24.80;99.90;;;;;;5046446;29;20052;-79
2023/09/06 07:49:48;;;;;;;13.88;7.78;;;24.80;99.90;;;;;;5056480;29;20033;-79
2023/09/06 07:52:19;;;;;;;9.95;6.18;;;24.70;99.90;;;;;;5065402;29;20071;-78
2023/09/06 07:54:49;;;;;;;9.57;6.78;;;24.70;99.90;;;;;;5067056;29;20044;-76
2023/09/06 07:57:20;;;;;;;13.45;6.60;;;24.70;99.90;;;;;;5067167;29;20033;-75
2023/09/06 07:59:51;;;;;;;10.55;6.28;;;24.70;99.90;;;;;;5520914;23;20060;-81
2023/09/06 08:02:22;;;;;;;12.45;6.13;;;24.70;99.90;;;;;;5064542;29;20128;-73
2023/09/06 08:04:53;;;;;;;8.63;6.43;;;24.80;99.90;;;;;;5061785;29;20489;-73
2023/09/06 08:07:24;;;;;;;20.77;7.40;;;24.80;99.90;;;;;;5066290;29;20039;-79
2023/09/06 08:09:55;;;;;;;13.70;7.18;;;24.80;99.90;;;;;;5066106;29;20024;-73
2023/09/06 08:12:26;;;;;;;8.60;6.43;;;24.90;99.90;;;;;;5057102;29;20045;-73
2023/09/06 08:14:57;;;;;;;12.70;7.05;;;24.80;99.90;;;;;;5066015;29;20084;-80
2023/09/06 08:17:28;;;;;;;10.05;6.07;;;24.80;99.90;;;;;;5066161;29;20028;-75
2023/09/06 08:19:59;;;;;;;11.63;6.05;;;24.80;99.90;;;;;;5066096;29;20100;-74
2023/09/06 08:22:30;;;;;;;11.27;6.45;;;24.90;99.90;;;;;;5066182;29;20108;-74
2023/09/06 08:25:03;;;;;;;9.45;6.00;;;24.90;99.90;;;;;;5065507;29;20060;-80
2023/09/06 08:27:35;;;;;;;12.60;6.00;;;25.10;99.90;;;;;;5066300;29;20025;-76
2023/09/06 08:30:13;;;;;;;14.40;6.55;;;25.10;99.90;;;;;;5051641;29;20064;-72
2023/09/06 08:32:46;;;;;;;10.48;6.35;;;25.10;99.90;;;;;;5043869;29;20056;-76
2023/09/06 08:35:17;;;;;;;10.00;6.13;;;25.20;99.90;;;;;;5045353;29;20125;-73
2023/09/06 08:37:48;;;;;;;10.50;6.97;;;25.30;99.90;;;;;;5046635;29;20025;-73
2023/09/06 08:40:21;;;;;;;11.25;7.07;;;25.40;99.90;;;;;;5044595;29;20029;-73
2023/09/06 08:42:55;;;;;;;15.40;6.53;;;25.50;99.90;;;;;;5043020;29;20029;-79
2023/09/06 08:45:26;;;;;;;13.43;6.82;;;25.60;99.90;;;;;;5043766;29;20040;-78
2023/09/06 08:47:58;;;;;;;9.80;7.20;;;26.00;99.90;;;;;;5045622;29;20029;-80
2023/09/06 08:50:31;;;;;;;16.00;7.32;;;26.10;99.90;;;;;;5046279;29;20085;-74
2023/09/06 08:53:04;;;;;;;13.52;7.32;;;26.30;99.90;;;;;;5048176;29;20037;-74
2023/09/06 08:55:34;;;;;;;8.38;7.25;;;26.60;99.90;;;;;;5053003;29;20033;-80
2023/09/06 08:58:05;;;;;;;8.93;7.05;;;26.80;99.90;;;;;;5052068;29;20047;-80
2023/09/06 09:00:38;;;;;;;13.77;8.07;;;26.90;99.90;;;;;;5050891;29;20049;-74
2023/09/06 09:03:08;;;;;;;11.57;8.32;;;26.60;99.90;;;;;;5053318;29;20025;-74
2023/09/06 09:05:39;;;;;;;13.88;8.50;;;26.50;99.90;;;;;;5053230;29;20052;-74
2023/09/06 09:08:10;;;;;;;10.65;7.65;;;26.20;99.90;;;;;;5050552;29;20037;-75
2023/09/06 09:10:42;;;;;;;12.93;7.10;;;26.30;99.90;;;;;;5052105;29;20025;-77
2023/09/06 09:13:13;;;;;;;11.02;7.85;;;26.30;99.90;;;;;;5051861;29;20048;-74
2023/09/06 09:15:43;;;;;;;13.20;7.75;;;26.40;99.90;;;;;;5053151;29;20029;-74
2023/09/06 09:18:15;;;;;;;11.63;7.07;;;26.20;99.90;;;;;;5051573;29;20033;-73
2023/09/06 09:20:46;;;;;;;10.10;7.28;;;26.20;99.90;;;;;;5049885;29;20150;-78
2023/09/06 09:23:16;;;;;;;7.88;6.63;;;26.10;99.90;;;;;;5046568;29;20108;-75
2023/09/06 09:25:48;;;;;;;10.95;6.75;;;26.00;99.90;;;;;;5051989;29;20367;-74
2023/09/06 09:28:20;;;;;;;10.55;6.18;;;26.00;99.90;;;;;;5052709;29;20041;-79
2023/09/06 09:30:51;;;;;;;7.72;5.63;;;25.80;99.90;;;;;;5051770;29;20041;-73
2023/09/06 09:33:27;;;;;;;9.13;6.22;;;25.80;99.90;;;;;;5052151;29;20059;-74
2023/09/06 09:35:58;;;;;;;10.15;5.60;;;25.90;99.90;;;;;;5049240;29;20076;-73
2023/09/06 09:38:30;;;;;;;7.85;5.40;;;25.80;99.90;;;;;;5048122;29;20430;-74
2023/09/06 09:41:06;;;;;;;9.27;5.00;;;25.80;99.90;;;;;;5049730;29;20143;-75
2023/09/06 09:43:37;;;;;;;10.65;5.43;;;25.90;99.90;;;;;;5050575;29;20043;-75
2023/09/06 09:46:09;;;;;;;11.13;5.07;;;25.90;99.90;;;;;;5051790;29;20029;-74
2023/09/06 09:48:41;;;;;;;8.45;4.93;;;25.90;99.90;;;;;;5051391;29;20033;-76
2023/09/06 09:51:16;;;;;;;10.32;5.35;;;25.80;99.90;;;;;;5052654;29;20037;-74
2023/09/06 09:53:47;;;;;;;10.70;5.95;;;25.70;99.90;;;;;;5052180;29;20123;-74
2023/09/06 09:56:21;;;;;;;9.85;5.85;;;25.60;99.90;;;;;;5050714;29;20142;-74
2023/09/06 09:59:00;;;;;;;9.93;6.30;;;25.80;99.90;;;;;;5051751;29;20128;-79
2023/09/06 10:01:31;;;;;;;10.85;6.88;;;25.80;99.90;;;;;;5051499;29;20039;-73
2023/09/06 10:04:06;;;;;;;9.43;5.80;;;25.80;99.90;;;;;;5050653;29;20040;-75
2023/09/06 10:06:38;;;;;;;10.35;5.97;;;25.70;99.90;;;;;;5047851;29;20083;-74
2023/09/06 10:09:12;;;;;;;10.02;5.10;;;25.70;99.90;;;;;;5047899;29;20482;-79
2023/09/06 10:11:43;;;;;;;12.93;6.35;;;25.60;99.90;;;;;;5047037;29;20416;-74
2023/09/06 10:14:16;;;;;;;10.23;5.18;;;25.60;99.90;;;;;;5049254;29;20037;-74
2023/09/06 10:16:48;;;;;;;7.53;5.05;;;25.50;99.90;;;;;;5049114;29;20025;-75
2023/09/06 10:19:22;;;;;;;9.30;5.43;;;25.60;99.90;;;;;;5049035;29;20037;-73
2023/09/06 10:21:54;;;;;;;8.05;5.85;;;25.60;99.90;;;;;;5045829;29;20021;-77
2023/09/06 10:24:24;;;;;;;11.65;6.28;;;25.60;99.90;;;;;;5047129;29;20115;-77
2023/09/06 10:26:57;;;;;;;9.05;6.03;;;25.80;99.90;;;;;;5047819;29;20108;-73
2023/09/06 10:29:30;;;;;;;9.50;5.55;;;25.80;99.90;;;;;;5048008;29;20071;-76
2023/09/06 10:32:05;;;;;;;9.35;6.03;;;25.90;99.90;;;;;;5047365;29;20072;-73
2023/09/06 10:34:45;;;;;;;9.63;6.85;;;26.10;99.90;;;;;;5044779;29;20397;-74
2023/09/06 10:37:16;;;;;;;10.60;6.57;;;26.30;99.90;;;;;;5046975;29;20514;-77
2023/09/06 10:39:56;;;;;;;9.23;6.10;;;26.40;99.90;;;;;;5046216;29;20037;-78
2023/09/06 10:42:27;;;;;;;10.02;7.28;;;26.50;99.90;;;;;;5048089;29;20029;-76
2023/09/06 10:45:00;;;;;;;9.02;6.28;;;26.70;99.90;;;;;;5048370;29;20032;-73
2023/09/06 10:47:36;;;;;;;8.48;7.40;;;26.80;99.90;;;;;;5048953;29;20131;-73
2023/09/06 10:50:17;;;;;;;9.45;7.95;;;27.10;99.90;;;;;;5047620;29;20508;-75
2023/09/06 10:52:53;;;;;;;8.95;7.68;;;27.10;99.90;;;;;;5047473;29;20048;-80
2023/09/06 10:55:26;;;;;;;8.98;8.10;;;27.10;99.90;;;;;;5049019;29;20025;-73
2023/09/06 10:58:08;;;;;;;10.68;9.57;;;27.00;99.90;;;;;;5048680;29;20033;-74
2023/09/06 11:00:41;;;;;;;10.15;8.75;;;27.00;99.90;;;;;;5048697;29;20052;-73
2023/09/06 11:03:16;;;;;;;10.13;8.10;;;26.80;99.90;;;;;;5047287;29;20124;-76
2023/09/06 11:05:56;;;;;;;8.30;7.03;;;26.70;99.90;;;;;;5048951;29;20454;-73
2023/09/06 11:08:29;;;;;;;9.35;7.80;;;26.70;99.90;;;;;;5045994;29;20068;-76
2023/09/06 11:11:07;;;;;;;8.93;6.57;;;26.40;99.90;;;;;;5048252;29;20085;-74
2023/09/06 11:13:40;;;;;;;15.95;7.50;;;26.00;99.90;;;;;;5048377;29;20085;-73
2023/09/06 11:16:15;;;;;;;12.82;7.22;;;26.00;99.90;;;;;;5047958;29;20108;-80
2023/09/06 11:18:49;;;;;;;10.65;7.35;;;26.00;99.90;;;;;;5047780;29;20029;-79
2023/09/06 11:21:24;;;;;;;11.63;7.45;;;25.80;99.90;;;;;;5046149;29;20381;-73
2023/09/06 11:23:56;;;;;;;11.38;6.63;;;25.60;99.90;;;;;;5046681;29;20029;-73
2023/09/06 11:26:37;;;;;;;10.73;6.05;;;25.60;99.90;;;;;;5045697;29;20033;-74
2023/09/06 11:29:08;;;;;;;9.27;6.15;;;25.80;99.90;;;;;;5047774;29;20439;-73
2023/09/06 11:31:39;;;;;;;9.50;6.22;;;26.10;99.90;;;;;;5046908;29;20493;-72
2023/09/06 11:34:13;;;;;;;7.22;6.18;;;26.00;99.90;;;;;;5047811;29;20069;-74
2023/09/06 11:36:44;;;;;;;13.57;6.13;;;25.90;99.90;;;;;;5047968;29;20067;-73
2023/09/06 11:39:28;;;;;;;9.77;7.93;;;26.00;99.90;;;;;;5047919;29;20029;-72
2023/09/06 11:42:01;;;;;;;9.23;8.25;;;26.00;99.90;;;;;;5046850;29;20033;-73
2023/09/06 11:44:33;;;;;;;11.27;10.25;;;26.10;99.90;;;;;;5047789;29;20029;-74
2023/09/06 11:47:06;;;;;;;10.60;9.00;;;26.20;99.90;;;;;;5046529;29;20100;-79
2023/09/06 11:49:40;;;;;;;11.38;9.07;;;26.20;99.90;;;;;;5047651;29;20029;-76
2023/09/06 11:52:16;;;;;;;9.35;7.03;;;26.10;99.90;;;;;;5047515;29;20048;-73
2023/09/06 11:54:52;;;;;;;9.70;6.80;;;26.20;99.90;;;;;;5047836;29;20021;-75
2023/09/06 11:57:26;;;;;;;8.52;7.47;;;26.20;99.90;;;;;;5047532;29;20037;-73
2023/09/06 11:59:57;;;;;;;9.45;6.72;;;26.20;99.90;;;;;;5047142;29;20385;-73
2023/09/06 12:02:30;;;;;;;9.40;7.10;;;26.30;99.90;;;;;;5047522;29;20474;-73
2023/09/06 12:05:03;;;;;;;11.63;7.10;;;26.40;99.90;;;;;;5045553;29;20081;-76
2023/09/06 12:07:34;;;;;;;9.50;7.82;;;26.30;99.90;;;;;;5046190;29;20036;-76
2023/09/06 12:10:06;;;;;;;11.57;8.45;;;26.10;99.90;;;;;;5045794;29;20028;-73
2023/09/06 12:12:42;;;;;;;13.48;8.38;;;26.00;99.90;;;;;;5044426;29;20041;-73
2023/09/06 12:15:22;;;;;;;11.95;8.30;;;26.00;99.90;;;;;;5036856;29;20033;-73
2023/09/06 12:17:54;;;;;;;8.60;7.72;;;26.10;99.90;;;;;;5045111;29;20066;-73
2023/09/06 12:20:25;;;;;;;8.13;7.25;;;26.10;99.90;;;;;;5044419;29;20045;-74
2023/09/06 12:22:57;;;;;;;9.85;8.90;;;26.10;99.90;;;;;;5045356;29;20033;-75
2023/09/06 12:25:28;;;;;;;8.65;7.85;;;26.30;99.90;;;;;;5061475;29;20031;-73
2023/09/06 12:28:01;;;;;;;8.82;7.05;;;26.30;99.90;;;;;;5046585;29;20025;-73
2023/09/06 12:30:31;;;;;;;9.55;6.85;;;26.40;99.90;;;;;;5047122;29;20385;-73
2023/09/06 12:33:03;;;;;;;9.65;6.82;;;26.60;99.90;;;;;;5046367;29;20049;-73
2023/09/06 12:35:38;;;;;;;9.82;7.75;;;26.80;99.90;;;;;;5047157;29;20037;-73
2023/09/06 12:38:08;;;;;;;7.07;6.05;;;27.00;99.90;;;;;;5046879;29;20421;-73
2023/09/06 12:40:39;;;;;;;7.20;6.53;;;27.00;99.90;;;;;;5046971;29;20049;-79
2023/09/06 12:43:10;;;;;;;11.02;6.72;;;27.00;99.90;;;;;;5045182;29;20037;-79
2023/09/06 12:45:41;;;;;;;7.72;6.97;;;27.40;99.90;;;;;;5045795;29;20036;-73
2023/09/06 12:48:12;;;;;;;9.23;7.40;;;27.70;99.90;;;;;;5046103;29;20068;-73
2023/09/06 12:50:43;;;;;;;7.70;6.60;;;27.70;99.90;;;;;;5046851;29;20517;-73
2023/09/06 12:53:13;;;;;;;10.35;6.32;;;27.50;99.90;;;;;;5045923;29;20390;-73
2023/09/06 12:55:48;;;;;;;9.18;6.57;;;27.50;99.90;;;;;;5046091;29;20033;-77
2023/09/06 12:58:23;;;;;;;7.88;6.25;;;27.30;99.90;;;;;;5046585;29;20107;-78
2023/09/06 13:00:55;;;;;;;8.55;7.82;;;27.10;99.90;;;;;;5045868;29;20097;-78
2023/09/06 13:03:27;;;;;;;12.13;8.38;;;27.10;99.90;;;;;;5045660;29;20036;-77
2023/09/06 13:06:01;;;;;;;14.80;8.32;;;27.10;99.90;;;;;;5046575;29;20418;-77
2023/09/06 13:08:34;;;;;;;9.73;8.00;;;26.90;99.90;;;;;;5046706;29;20044;-79
2023/09/06 13:11:06;;;;;;;8.55;7.47;;;26.90;99.90;;;;;;5043945;29;20386;-78